Rose Hill, Texas
Current Conditions -  °F | °C
As of 5:53 PM on Sunday 25 Jan 2015 (Local Time) from KDWH Reporting Station
Clear Clear  
Wind Chill: 64°   Ceiling: Unl
Heat Index: 64°   Visibility: 10mi
Dew Point: 36°   Wind: 12mph
Humidity: 35%   Direction: 280°W
Pressure: 30.04"   Gusts: NA
Location:  30.0721°N, 95.6453°W
Report Text: KDWH 252353Z 28010KT 10SM CLR 18/02 A3004 RMK AO2 SLP170 T01780022 10206 20178 53001
Loading
Personal Weather Stations






























Interactive Weather Map New forecast layout! Learn more

10-Day Weather Forecast

Advertisements
Track Severe Weather on mobile